createdAt,value
2018-09-26T00:02:06.573Z,2.90
2018-09-26T00:04:36.818Z,3.00
2018-09-26T00:07:04.562Z,2.90
2018-09-26T00:09:31.873Z,2.50
2018-09-26T00:11:59.230Z,3.03
2018-09-26T00:14:26.589Z,3.13
2018-09-26T00:16:54.021Z,3.07
2018-09-26T00:19:21.417Z,2.87
2018-09-26T00:21:48.805Z,3.03
2018-09-26T00:24:16.137Z,2.83
2018-09-26T00:26:43.603Z,3.10
2018-09-26T00:29:11.029Z,3.10
2018-09-26T00:31:38.429Z,2.80
2018-09-26T00:34:05.819Z,2.47
2018-09-26T00:36:33.233Z,3.10
2018-09-26T00:39:00.600Z,2.53
2018-09-26T00:41:27.938Z,2.53
2018-09-26T00:43:55.415Z,2.60
2018-09-26T00:46:24.151Z,3.03
2018-09-26T00:48:51.538Z,2.63
2018-09-26T00:51:19.603Z,2.60
2018-09-26T00:53:47.053Z,2.30
2018-09-26T00:56:14.426Z,3.30
2018-09-26T00:58:42.351Z,2.67
2018-09-26T01:01:09.797Z,2.90
2018-09-26T01:03:37.228Z,2.57
2018-09-26T01:06:04.702Z,2.70
2018-09-26T01:08:33.726Z,3.17
2018-09-26T01:11:01.148Z,2.40
2018-09-26T01:13:28.636Z,3.03
2018-09-26T01:15:56.790Z,2.60
2018-09-26T01:18:24.211Z,2.43
2018-09-26T01:20:51.574Z,2.80
2018-09-26T01:23:18.911Z,2.40
2018-09-26T01:25:46.349Z,3.17
2018-09-26T01:28:14.082Z,2.90
2018-09-26T01:30:41.515Z,2.67
2018-09-26T01:33:09.006Z,2.20
2018-09-26T01:35:36.348Z,3.00
2018-09-26T01:38:03.806Z,2.27
2018-09-26T01:40:31.233Z,2.43
2018-09-26T01:42:58.613Z,2.20
2018-09-26T01:45:26.100Z,2.50
2018-09-26T01:47:53.446Z,2.97
2018-09-26T01:50:21.003Z,2.50
2018-09-26T01:52:48.371Z,2.53
2018-09-26T01:55:16.083Z,2.27
2018-09-26T01:57:43.470Z,2.30
2018-09-26T02:00:10.899Z,1.90
2018-09-26T02:02:38.267Z,2.40
2018-09-26T02:05:05.686Z,3.17
2018-09-26T02:07:33.066Z,2.30
2018-09-26T02:10:00.503Z,2.40
2018-09-26T02:12:27.842Z,2.70
2018-09-26T02:14:55.241Z,2.50
2018-09-26T02:17:22.651Z,2.10
2018-09-26T02:19:50.023Z,2.40
2018-09-26T02:22:17.770Z,2.70
2018-09-26T02:24:45.287Z,2.83
2018-09-26T02:27:12.650Z,2.27
2018-09-26T02:29:40.975Z,2.20
2018-09-26T02:32:08.344Z,2.57
2018-09-26T02:34:35.739Z,2.57
2018-09-26T02:37:06.295Z,2.17
2018-09-26T02:39:33.738Z,2.30
2018-09-26T02:42:01.131Z,2.37
2018-09-26T02:44:28.553Z,2.00
2018-09-26T02:46:55.947Z,2.00
2018-09-26T02:49:23.337Z,2.83
2018-09-26T02:51:50.703Z,2.83
2018-09-26T02:54:18.073Z,2.40
2018-09-26T02:56:45.542Z,2.60
2018-09-26T02:59:12.970Z,2.63
2018-09-26T03:01:40.367Z,2.40
2018-09-26T03:04:07.754Z,2.30
2018-09-26T03:06:35.899Z,2.03
2018-09-26T03:09:04.879Z,2.90
2018-09-26T03:11:32.357Z,2.50
2018-09-26T03:13:59.686Z,2.37
2018-09-26T03:16:27.095Z,2.60
2018-09-26T03:18:54.486Z,1.97
2018-09-26T03:21:21.989Z,2.20
2018-09-26T03:23:49.454Z,2.40
2018-09-26T03:26:16.865Z,2.47
2018-09-26T03:28:44.401Z,2.60
2018-09-26T03:31:11.830Z,2.20
2018-09-26T03:33:39.214Z,2.77
2018-09-26T03:36:06.651Z,2.43
2018-09-26T03:38:34.095Z,2.30
2018-09-26T03:41:01.524Z,2.60
2018-09-26T03:43:28.948Z,2.47
2018-09-26T03:45:56.358Z,2.43
2018-09-26T03:48:23.778Z,2.47
2018-09-26T03:50:51.151Z,2.80
2018-09-26T03:53:18.550Z,2.70
2018-09-26T03:55:45.892Z,2.33
2018-09-26T03:58:13.238Z,2.13
2018-09-26T04:00:40.627Z,2.20
2018-09-26T04:03:08.031Z,2.00
2018-09-26T04:05:35.430Z,1.97
2018-09-26T04:08:02.929Z,1.90
2018-09-26T04:10:30.330Z,1.80
2018-09-26T04:12:57.717Z,1.87
2018-09-26T04:15:26.083Z,1.90
2018-09-26T04:17:53.479Z,2.20
2018-09-26T04:20:20.873Z,2.30
2018-09-26T04:22:48.313Z,1.97
2018-09-26T04:25:15.846Z,2.00
2018-09-26T04:27:43.288Z,2.30
2018-09-26T04:30:10.618Z,1.83
2018-09-26T04:32:38.102Z,2.10
2018-09-26T04:35:05.463Z,2.50
2018-09-26T04:37:32.851Z,2.30
2018-09-26T04:40:00.225Z,2.40
2018-09-26T04:42:27.633Z,2.27
2018-09-26T04:44:55.025Z,2.57
2018-09-26T04:47:22.533Z,1.73
2018-09-26T04:49:49.954Z,2.20
2018-09-26T04:52:17.462Z,2.80
2018-09-26T04:54:44.932Z,1.90
2018-09-26T04:57:12.386Z,2.00
2018-09-26T04:59:39.853Z,1.83
2018-09-26T05:02:07.217Z,2.40
2018-09-26T05:04:34.622Z,2.07
2018-09-26T05:07:02.085Z,2.00
2018-09-26T05:09:29.492Z,2.30
2018-09-26T05:11:56.886Z,1.93
2018-09-26T05:14:24.239Z,1.50
2018-09-26T05:16:51.663Z,2.30
2018-09-26T05:19:19.098Z,2.00
2018-09-26T05:21:46.521Z,2.20
2018-09-26T05:24:13.933Z,8.53
2018-09-26T05:26:41.318Z,12.53
2018-09-26T05:29:09.650Z,7.30
2018-09-26T05:31:37.151Z,4.73
2018-09-26T05:34:04.583Z,3.10
2018-09-26T05:36:32.933Z,2.80
2018-09-26T05:39:00.363Z,2.73
2018-09-26T05:41:27.783Z,2.17
2018-09-26T05:43:55.237Z,1.93
2018-09-26T05:46:22.566Z,2.43
2018-09-26T05:48:50.797Z,2.20
2018-09-26T05:51:18.158Z,2.37
2018-09-26T05:53:45.582Z,1.80
2018-09-26T05:56:12.999Z,2.83
2018-09-26T05:58:40.376Z,2.33
2018-09-26T06:01:07.887Z,2.47
2018-09-26T06:03:35.981Z,1.90
2018-09-26T06:06:03.431Z,2.07
2018-09-26T06:08:31.227Z,2.20
2018-09-26T06:10:58.605Z,1.70
2018-09-26T06:13:26.144Z,2.07
2018-09-26T06:15:53.495Z,8.20
2018-09-26T06:18:20.879Z,26.33
2018-09-26T06:20:48.378Z,13.00
2018-09-26T06:23:15.860Z,8.10
2018-09-26T06:25:43.198Z,4.67
2018-09-26T06:28:10.525Z,3.23
2018-09-26T06:30:37.961Z,2.23
2018-09-26T06:33:05.450Z,2.00
2018-09-26T06:35:33.095Z,2.67
2018-09-26T06:38:00.484Z,2.33
2018-09-26T06:40:27.906Z,2.00
2018-09-26T06:42:55.294Z,2.20
2018-09-26T06:45:22.749Z,2.10
2018-09-26T06:47:50.213Z,2.30
2018-09-26T06:50:17.703Z,2.63
2018-09-26T06:52:45.132Z,2.40
2018-09-26T06:55:12.555Z,2.33
2018-09-26T06:57:39.946Z,2.57
2018-09-26T07:00:07.853Z,2.60
2018-09-26T07:02:35.990Z,1.70
2018-09-26T07:05:03.506Z,2.40
2018-09-26T07:07:30.849Z,6.73
2018-09-26T07:09:58.198Z,46.13
2018-09-26T07:12:25.601Z,24.53
2018-09-26T07:14:52.966Z,13.20
2018-09-26T07:17:20.423Z,7.77
2018-09-26T07:19:47.861Z,4.53
2018-09-26T07:22:15.278Z,3.73
2018-09-26T07:24:42.751Z,2.73
2018-09-26T07:27:10.155Z,2.47
2018-09-26T07:29:37.702Z,2.67
2018-09-26T07:32:05.332Z,2.00
2018-09-26T07:34:38.573Z,2.20
2018-09-26T07:37:06.438Z,2.70
2018-09-26T07:39:34.407Z,2.10
2018-09-26T07:42:01.782Z,2.17
2018-09-26T07:44:29.336Z,2.50
2018-09-26T07:46:56.910Z,2.83
2018-09-26T07:49:24.406Z,3.30
2018-09-26T07:51:51.830Z,3.30
2018-09-26T07:54:19.299Z,2.73
2018-09-26T07:56:47.314Z,2.73
2018-09-26T07:59:14.701Z,2.80
2018-09-26T08:01:42.244Z,2.23
2018-09-26T08:04:09.598Z,2.60
2018-09-26T08:06:37.166Z,2.70
2018-09-26T08:09:06.017Z,2.63
2018-09-26T08:11:33.465Z,2.53
2018-09-26T08:14:01.054Z,2.13
2018-09-26T08:16:28.491Z,2.20
2018-09-26T08:18:55.894Z,3.00
2018-09-26T08:21:23.294Z,3.50
2018-09-26T08:23:50.722Z,12.80
2018-09-26T08:26:18.141Z,11.27
2018-09-26T08:28:45.692Z,7.60
2018-09-26T08:31:13.126Z,4.40
2018-09-26T08:33:40.485Z,4.10
2018-09-26T08:36:07.887Z,3.90
2018-09-26T08:38:35.879Z,3.27
2018-09-26T08:41:03.279Z,2.93
2018-09-26T08:43:30.745Z,2.63
2018-09-26T08:45:58.134Z,2.47
2018-09-26T08:48:25.797Z,2.40
2018-09-26T08:50:53.183Z,2.37
2018-09-26T08:53:20.666Z,2.60
2018-09-26T08:55:48.131Z,4.00
2018-09-26T08:58:15.515Z,30.77
2018-09-26T09:00:47.559Z,20.77
2018-09-26T09:03:14.954Z,15.27
2018-09-26T09:05:42.411Z,10.10
2018-09-26T09:08:09.794Z,7.60
2018-09-26T09:10:37.197Z,5.70
2018-09-26T09:13:04.687Z,4.07
2018-09-26T09:15:32.102Z,3.13
2018-09-26T09:18:00.052Z,3.33
2018-09-26T09:20:27.434Z,2.90
2018-09-26T09:22:55.720Z,2.80
2018-09-26T09:25:23.100Z,4.10
2018-09-26T09:27:50.513Z,14.77
2018-09-26T09:30:17.853Z,13.03
2018-09-26T09:32:45.193Z,10.13
2018-09-26T09:35:12.563Z,7.53
2018-09-26T09:37:39.935Z,6.13
2018-09-26T09:40:07.476Z,6.20
2018-09-26T09:42:34.889Z,5.00
2018-09-26T09:45:02.298Z,3.77
2018-09-26T09:47:29.726Z,3.23
2018-09-26T09:49:57.283Z,2.97
2018-09-26T09:52:24.863Z,3.47
2018-09-26T09:54:52.261Z,2.37
2018-09-26T09:57:19.610Z,1.63
2018-09-26T09:59:47.011Z,2.50
2018-09-26T10:02:14.492Z,1.60
2018-09-26T10:04:41.886Z,1.80
2018-09-26T10:07:09.309Z,1.27
2018-09-26T10:09:36.714Z,1.53
2018-09-26T10:12:04.076Z,1.77
2018-09-26T10:14:31.537Z,1.73
2018-09-26T10:16:59.078Z,5.20
2018-09-26T10:19:26.450Z,14.53
2018-09-26T10:21:55.088Z,9.80
2018-09-26T10:24:22.685Z,8.43
2018-09-26T10:26:50.123Z,7.53
2018-09-26T10:29:17.668Z,6.70
2018-09-26T10:31:45.730Z,4.50
2018-09-26T10:34:13.119Z,3.80
2018-09-26T10:36:40.477Z,4.13
2018-09-26T10:39:08.990Z,3.43
2018-09-26T10:41:36.558Z,2.83
2018-09-26T10:44:04.076Z,2.77
2018-09-26T10:46:31.699Z,3.00
2018-09-26T10:48:59.214Z,2.60
2018-09-26T10:51:26.622Z,2.10
2018-09-26T10:53:53.998Z,2.07
2018-09-26T10:56:21.789Z,2.20
2018-09-26T10:58:50.491Z,1.53
2018-09-26T11:01:17.882Z,1.77
2018-09-26T11:03:45.415Z,1.70
2018-09-26T11:06:12.915Z,1.90
2018-09-26T11:08:40.288Z,1.40
2018-09-26T11:11:07.829Z,1.83
2018-09-26T11:13:35.258Z,1.60
2018-09-26T11:16:02.651Z,1.73
2018-09-26T11:18:30.434Z,1.97
2018-09-26T11:20:57.770Z,1.60
2018-09-26T11:23:25.817Z,1.30
2018-09-26T11:25:53.217Z,1.40
2018-09-26T11:28:20.842Z,1.43
2018-09-26T11:30:48.267Z,2.40
2018-09-26T11:33:15.832Z,4.70
2018-09-26T11:35:43.273Z,5.43
2018-09-26T11:38:10.719Z,8.47
2018-09-26T11:40:38.239Z,9.00
2018-09-26T11:43:06.835Z,9.07
2018-09-26T11:45:34.275Z,6.43
2018-09-26T11:48:01.690Z,4.87
2018-09-26T11:50:29.559Z,3.97
2018-09-26T11:52:57.086Z,3.20
2018-09-26T11:55:24.510Z,2.60
2018-09-26T11:57:51.932Z,2.50
2018-09-26T12:00:19.966Z,2.30
2018-09-26T12:02:47.681Z,1.80
2018-09-26T12:05:15.046Z,2.03
2018-09-26T12:07:42.621Z,2.30
2018-09-26T12:10:10.062Z,1.90
2018-09-26T12:12:37.454Z,1.53
2018-09-26T12:15:05.021Z,1.60
2018-09-26T12:17:32.392Z,2.07
2018-09-26T12:19:59.790Z,1.50
2018-09-26T12:22:27.146Z,1.50
2018-09-26T12:24:54.794Z,1.03
2018-09-26T12:27:23.593Z,1.50
2018-09-26T12:29:50.977Z,1.67
2018-09-26T12:32:18.398Z,1.07
2018-09-26T12:34:45.904Z,0.90
2018-09-26T12:37:13.278Z,1.47
2018-09-26T12:39:40.758Z,1.37
2018-09-26T12:42:08.274Z,1.40
2018-09-26T12:44:36.074Z,1.87
2018-09-26T12:47:03.678Z,1.10
2018-09-26T12:49:31.108Z,1.10
2018-09-26T12:51:58.617Z,1.30
2018-09-26T12:54:26.024Z,1.30
2018-09-26T12:56:55.003Z,1.03
2018-09-26T12:59:22.415Z,1.97
2018-09-26T13:01:49.781Z,1.20
2018-09-26T13:04:17.250Z,1.50
2018-09-26T13:06:44.740Z,1.37
2018-09-26T13:09:12.095Z,1.20
2018-09-26T13:11:39.486Z,1.23
2018-09-26T13:14:06.869Z,1.27
2018-09-26T13:16:34.265Z,1.33
2018-09-26T13:19:01.776Z,1.10
2018-09-26T13:21:29.100Z,1.70
2018-09-26T13:23:56.509Z,1.40
2018-09-26T13:26:23.905Z,1.30
2018-09-26T13:28:51.275Z,1.33
2018-09-26T13:31:18.422Z,1.30
2018-09-26T13:33:45.805Z,1.33
2018-09-26T13:36:13.358Z,1.47
2018-09-26T13:38:41.335Z,1.67
2018-09-26T13:41:08.761Z,2.37
2018-09-26T13:43:36.147Z,1.20
2018-09-26T13:46:03.724Z,1.30
2018-09-26T13:48:31.119Z,1.50
2018-09-26T13:50:58.529Z,1.60
2018-09-26T13:53:25.942Z,1.83
2018-09-26T13:55:53.321Z,1.83
2018-09-26T13:58:20.853Z,1.70
2018-09-26T14:00:48.287Z,1.33
2018-09-26T14:03:15.682Z,2.43
2018-09-26T14:05:43.065Z,1.40
2018-09-26T14:08:10.687Z,1.77
2018-09-26T14:10:38.113Z,1.73
2018-09-26T14:13:05.575Z,1.63
2018-09-26T14:15:32.977Z,1.50
2018-09-26T14:18:00.355Z,1.73
2018-09-26T14:20:27.854Z,1.50
2018-09-26T14:22:55.346Z,1.63
2018-09-26T14:25:22.733Z,1.50
2018-09-26T14:27:50.173Z,1.80
2018-09-26T14:30:17.661Z,1.83
2018-09-26T14:32:45.496Z,1.60
2018-09-26T14:35:12.945Z,1.60
2018-09-26T14:37:40.399Z,1.43
2018-09-26T14:40:08.309Z,1.97
2018-09-26T14:42:35.847Z,1.83
2018-09-26T14:45:03.470Z,1.60
2018-09-26T14:47:30.922Z,1.57
2018-09-26T14:49:59.927Z,1.63
2018-09-26T14:52:27.342Z,25.20
2018-09-26T14:54:55.507Z,30.37
2018-09-26T14:57:22.996Z,21.17
2018-09-26T14:59:50.931Z,32.17
2018-09-26T15:02:18.463Z,20.53
2018-09-26T15:04:46.058Z,11.13
2018-09-26T15:07:13.450Z,7.70
2018-09-26T15:09:40.838Z,5.60
2018-09-26T15:12:08.714Z,4.20
2018-09-26T15:14:36.240Z,3.40
2018-09-26T15:17:03.642Z,2.70
2018-09-26T15:19:31.092Z,2.10
2018-09-26T15:21:58.531Z,2.00
2018-09-26T15:24:25.991Z,1.80
2018-09-26T15:26:53.538Z,1.70
2018-09-26T15:29:20.979Z,1.60
2018-09-26T15:31:48.445Z,1.50
2018-09-26T15:34:16.036Z,1.23
2018-09-26T15:36:43.453Z,1.60
2018-09-26T15:39:11.934Z,1.30
2018-09-26T15:41:39.900Z,1.93
2018-09-26T15:44:07.651Z,2.23
2018-09-26T15:46:35.090Z,1.43
2018-09-26T15:49:02.866Z,1.50
2018-09-26T15:51:30.316Z,2.07
2018-09-26T15:53:57.806Z,2.00
2018-09-26T15:56:25.293Z,2.00
2018-09-26T15:58:52.774Z,1.60
2018-09-26T16:01:20.319Z,2.20
2018-09-26T16:03:47.714Z,2.13
2018-09-26T16:06:15.320Z,1.97
2018-09-26T16:08:42.831Z,2.50
2018-09-26T16:11:10.636Z,1.93
2018-09-26T16:13:38.078Z,1.70
2018-09-26T16:16:05.651Z,2.10
2018-09-26T16:18:33.143Z,1.30
2018-09-26T16:21:00.570Z,1.30
2018-09-26T16:23:28.166Z,1.90
2018-09-26T16:25:55.608Z,1.80
2018-09-26T16:28:23.158Z,1.70
2018-09-26T16:30:50.513Z,1.67
2018-09-26T16:33:17.984Z,1.90
2018-09-26T16:35:45.599Z,1.50
2018-09-26T16:38:13.217Z,1.50
2018-09-26T16:40:40.879Z,1.47
2018-09-26T16:43:08.266Z,1.37
2018-09-26T16:45:35.675Z,1.27
2018-09-26T16:48:03.261Z,1.23
2018-09-26T16:50:30.723Z,1.10
2018-09-26T16:52:58.765Z,1.40
2018-09-26T16:55:26.163Z,1.50
2018-09-26T16:57:53.561Z,1.33
2018-09-26T17:00:21.332Z,3.20
2018-09-26T17:02:48.727Z,4.60
2018-09-26T17:05:16.203Z,4.23
2018-09-26T17:07:43.760Z,3.63
2018-09-26T17:10:11.507Z,3.33
2018-09-26T17:12:38.980Z,3.17
2018-09-26T17:15:07.511Z,2.07
2018-09-26T17:17:36.899Z,2.00
2018-09-26T17:20:05.141Z,2.47
2018-09-26T17:22:36.767Z,1.57
2018-09-26T17:25:04.286Z,1.77
2018-09-26T17:27:32.047Z,2.03
2018-09-26T17:29:59.636Z,1.60
2018-09-26T17:32:27.152Z,1.70
2018-09-26T17:34:54.626Z,2.23
2018-09-26T17:37:22.121Z,2.23
2018-09-26T17:39:50.508Z,2.03
2018-09-26T17:42:18.044Z,1.90
2018-09-26T17:44:45.630Z,3.20
2018-09-26T17:47:13.679Z,3.63
2018-09-26T17:49:41.222Z,3.00
2018-09-26T17:52:08.774Z,2.30
2018-09-26T17:54:36.230Z,2.23
2018-09-26T17:57:03.726Z,2.07
2018-09-26T17:59:31.163Z,2.80
2018-09-26T18:01:58.719Z,2.80
2018-09-26T18:04:26.264Z,2.70
2018-09-26T18:06:54.302Z,3.57
2018-09-26T18:09:22.094Z,2.90
2018-09-26T18:11:51.411Z,2.23
2018-09-26T18:14:20.545Z,2.50
2018-09-26T18:16:48.654Z,2.63
2018-09-26T18:19:16.857Z,2.80
2018-09-26T18:21:45.117Z,3.37
2018-09-26T18:24:13.191Z,3.10
2018-09-26T18:26:41.309Z,3.30
2018-09-26T18:29:10.159Z,3.27
2018-09-26T18:31:37.991Z,3.70
2018-09-26T18:34:06.005Z,3.40
2018-09-26T18:36:34.269Z,4.70
2018-09-26T18:39:02.213Z,3.90
2018-09-26T18:41:29.979Z,4.97
2018-09-26T18:43:57.787Z,3.90
2018-09-26T18:46:25.854Z,3.80
2018-09-26T18:48:53.586Z,2.90
2018-09-26T18:51:21.688Z,2.60
2018-09-26T18:53:49.436Z,2.27
2018-09-26T18:56:17.421Z,4.47
2018-09-26T18:58:46.339Z,6.30
2018-09-26T19:01:14.804Z,6.50
2018-09-26T19:03:43.172Z,4.90
2018-09-26T19:06:11.439Z,4.27
2018-09-26T19:08:39.318Z,3.90
2018-09-26T19:11:07.358Z,3.20
2018-09-26T19:13:35.009Z,4.30
2018-09-26T19:16:02.858Z,2.90
2018-09-26T19:18:30.797Z,3.40
2018-09-26T19:20:59.428Z,3.20
2018-09-26T19:23:27.934Z,3.50
2018-09-26T19:25:56.753Z,3.87
2018-09-26T19:28:25.586Z,3.47
2018-09-26T19:30:54.494Z,3.93
2018-09-26T19:33:23.818Z,4.20
2018-09-26T19:35:53.088Z,4.00
2018-09-26T19:38:21.009Z,3.70
2018-09-26T19:40:48.728Z,4.03
2018-09-26T19:43:16.511Z,4.10
2018-09-26T19:45:44.531Z,4.30
2018-09-26T19:48:12.536Z,3.47
2018-09-26T19:50:40.657Z,4.73
2018-09-26T19:53:09.553Z,3.90
2018-09-26T19:55:37.242Z,4.70
2018-09-26T19:58:05.797Z,4.43
2018-09-26T20:00:34.112Z,4.47
2018-09-26T20:03:03.299Z,4.50
2018-09-26T20:05:32.555Z,6.27
2018-09-26T20:08:00.869Z,4.83
2018-09-26T20:10:30.459Z,5.50
2018-09-26T20:12:58.618Z,5.07
2018-09-26T20:15:28.582Z,5.00
2018-09-26T20:17:56.685Z,5.17
2018-09-26T20:20:24.861Z,9.10
2018-09-26T20:22:53.730Z,8.47
2018-09-26T20:25:21.558Z,6.63
2018-09-26T20:27:49.299Z,5.80
2018-09-26T20:30:16.727Z,4.90
2018-09-26T20:32:44.361Z,5.00
2018-09-26T20:35:11.895Z,5.00
2018-09-26T20:37:39.593Z,5.77
2018-09-26T20:40:07.357Z,6.07
2018-09-26T20:42:34.999Z,7.23
2018-09-26T20:45:02.690Z,6.00
2018-09-26T20:47:30.166Z,5.30
2018-09-26T20:49:57.570Z,5.87
2018-09-26T20:52:25.002Z,5.43
2018-09-26T20:54:52.377Z,4.73
2018-09-26T20:57:19.815Z,5.33
2018-09-26T20:59:47.317Z,5.13
2018-09-26T21:02:14.796Z,5.17
2018-09-26T21:04:42.258Z,5.33
2018-09-26T21:07:09.687Z,4.63
2018-09-26T21:09:37.143Z,5.23
2018-09-26T21:12:04.686Z,4.00
2018-09-26T21:14:32.366Z,5.30
2018-09-26T21:16:59.801Z,4.70
2018-09-26T21:19:27.146Z,5.20
2018-09-26T21:21:54.549Z,5.10
2018-09-26T21:24:21.994Z,5.00
2018-09-26T21:26:49.461Z,4.97
2018-09-26T21:29:16.903Z,4.90
2018-09-26T21:31:44.342Z,4.23
2018-09-26T21:34:11.730Z,5.13
2018-09-26T21:36:39.383Z,5.50
2018-09-26T21:39:07.509Z,4.17
2018-09-26T21:41:35.059Z,4.07
2018-09-26T21:44:02.541Z,4.60
2018-09-26T21:46:30.012Z,4.80
2018-09-26T21:48:58.181Z,5.03
2018-09-26T21:51:25.757Z,4.60
2018-09-26T21:53:53.269Z,7.07
2018-09-26T21:56:20.667Z,4.80
2018-09-26T21:58:48.075Z,4.33
2018-09-26T22:01:16.353Z,4.80
2018-09-26T22:03:43.706Z,4.90
2018-09-26T22:06:11.752Z,4.70
2018-09-26T22:08:39.266Z,4.03
2018-09-26T22:11:06.791Z,3.70
2018-09-26T22:13:34.793Z,4.37
2018-09-26T22:16:02.731Z,3.60
2018-09-26T22:18:30.167Z,3.07
2018-09-26T22:20:57.665Z,4.10
2018-09-26T22:23:25.147Z,3.17
2018-09-26T22:25:52.518Z,4.53
2018-09-26T22:28:19.935Z,4.10
2018-09-26T22:30:47.450Z,4.03
2018-09-26T22:33:14.850Z,5.00
2018-09-26T22:35:42.470Z,3.73
2018-09-26T22:38:09.954Z,4.70
2018-09-26T22:40:37.487Z,3.50
2018-09-26T22:43:05.242Z,3.57
2018-09-26T22:45:32.811Z,3.70
2018-09-26T22:48:00.189Z,3.67
2018-09-26T22:50:27.878Z,3.43
2018-09-26T22:52:55.381Z,2.70
2018-09-26T22:55:22.770Z,3.27
2018-09-26T22:57:50.341Z,3.90
2018-09-26T23:00:17.741Z,3.47
2018-09-26T23:02:45.392Z,3.03
2018-09-26T23:05:12.815Z,2.97
2018-09-26T23:07:40.312Z,3.13
2018-09-26T23:10:07.744Z,3.13
2018-09-26T23:12:35.441Z,3.23
2018-09-26T23:15:02.882Z,3.50
2018-09-26T23:17:30.354Z,2.97
2018-09-26T23:19:59.932Z,3.90
2018-09-26T23:22:27.372Z,4.07
2018-09-26T23:24:54.773Z,4.07
2018-09-26T23:27:22.302Z,3.60
2018-09-26T23:29:49.685Z,3.80
2018-09-26T23:32:17.075Z,3.80
2018-09-26T23:34:44.617Z,3.60
2018-09-26T23:37:12.070Z,3.20
2018-09-26T23:39:39.533Z,3.77
2018-09-26T23:42:07.043Z,2.77
2018-09-26T23:44:40.369Z,3.17
2018-09-26T23:47:13.633Z,2.73
2018-09-26T23:49:41.054Z,3.00
2018-09-26T23:52:08.433Z,2.87
2018-09-26T23:54:35.879Z,2.50
2018-09-26T23:57:03.314Z,2.60
2018-09-26T23:59:31.519Z,3.10
